LSGG/GVA METAR and TAF weather

Enter ICAO airport designator
Station Type Date Time Source
LSGG METAR 2022/06/27 18:20 UTC NOAA

LSGG 271820Z 04007KT 9999 FEW038 22/13 Q1019 NOSIG


Station Type Date Time Source
LSGG Decoded METAR 2022/06/27 18:20 UTC NOAA

Geneve-Cointrin, Switzerland (LSGG) 46-15N 006-08E 416M
Jun 27, 2022 - 02:20 PM EDT / 2022.06.27 1820 UTC
Wind: from the NE (040 degrees) at 8 MPH (7 KT):0
Visibility: greater than 7 mile(s):0
Sky conditions: mostly clear
Temperature: 71 F (22 C)
Dew Point: 55 F (13 C)
Relative Humidity: 56%
Pressure (altimeter): 30.09 in. Hg (1019 hPa)
ob: LSGG 271820Z 04007KT 9999 FEW038 22/13 Q1019 NOSIG
cycle: 18

Station Type Date Time Source
LSGG TAF 2022/06/27 18:33 UTC NOAA

TAF TAF LSGG 271725Z 2718/2824 VRB02KT 9999 FEW035 BKN090 TX23/2815Z TN16/2804Z
BECMG 2804/2806 05012KT
TEMPO 2810/2817 23015G25KT TSRA SCT030CB
BECMG 2817/2819 VRB02KT

Example: see airport list